sensor_id;sensor_type;location;lat;lon;timestamp;P1;durP1;ratioP1;P2;durP2;ratioP2
9716;SDS011;4897;43.570;27.832;2023-02-26T00:02:20;14.10;;;5.10;;
9716;SDS011;4897;43.570;27.832;2023-02-26T00:04:46;16.45;;;5.38;;
9716;SDS011;4897;43.570;27.832;2023-02-26T00:07:13;10.95;;;5.57;;
9716;SDS011;4897;43.570;27.832;2023-02-26T00:09:40;13.27;;;5.30;;
9716;SDS011;4897;43.570;27.832;2023-02-26T00:12:08;15.60;;;5.43;;
9716;SDS011;4897;43.570;27.832;2023-02-26T00:14:36;20.15;;;6.03;;
9716;SDS011;4897;43.570;27.832;2023-02-26T00:17:12;11.18;;;5.03;;
9716;SDS011;4897;43.570;27.832;2023-02-26T00:19:58;21.33;;;5.47;;
9716;SDS011;4897;43.570;27.832;2023-02-26T00:22:29;11.93;;;5.05;;
9716;SDS011;4897;43.570;27.832;2023-02-26T00:24:56;15.85;;;6.07;;
9716;SDS011;4897;43.570;27.832;2023-02-26T00:27:23;10.27;;;4.70;;
9716;SDS011;4897;43.570;27.832;2023-02-26T00:29:50;14.57;;;5.93;;
9716;SDS011;4897;43.570;27.832;2023-02-26T00:32:17;9.18;;;5.03;;
9716;SDS011;4897;43.570;27.832;2023-02-26T00:34:46;21.45;;;5.15;;
9716;SDS011;4897;43.570;27.832;2023-02-26T00:37:16;14.88;;;5.70;;
9716;SDS011;4897;43.570;27.832;2023-02-26T00:39:55;19.63;;;5.15;;
9716;SDS011;4897;43.570;27.832;2023-02-26T00:42:33;16.67;;;5.47;;
9716;SDS011;4897;43.570;27.832;2023-02-26T00:45:01;9.18;;;4.68;;
9716;SDS011;4897;43.570;27.832;2023-02-26T00:47:29;12.02;;;5.45;;
9716;SDS011;4897;43.570;27.832;2023-02-26T00:50:10;8.95;;;4.43;;
9716;SDS011;4897;43.570;27.832;2023-02-26T00:52:43;12.40;;;5.38;;
9716;SDS011;4897;43.570;27.832;2023-02-26T00:55:18;11.98;;;5.03;;
9716;SDS011;4897;43.570;27.832;2023-02-26T00:57:45;18.33;;;5.40;;
9716;SDS011;4897;43.570;27.832;2023-02-26T01:00:12;13.32;;;5.15;;
9716;SDS011;4897;43.570;27.832;2023-02-26T01:02:41;9.38;;;4.95;;
9716;SDS011;4897;43.570;27.832;2023-02-26T01:05:10;15.35;;;5.57;;
9716;SDS011;4897;43.570;27.832;2023-02-26T01:07:39;13.68;;;5.18;;
9716;SDS011;4897;43.570;27.832;2023-02-26T01:10:10;17.65;;;5.47;;
9716;SDS011;4897;43.570;27.832;2023-02-26T01:12:38;10.00;;;5.45;;
9716;SDS011;4897;43.570;27.832;2023-02-26T01:15:08;14.77;;;6.03;;
9716;SDS011;4897;43.570;27.832;2023-02-26T01:17:38;12.90;;;5.47;;
9716;SDS011;4897;43.570;27.832;2023-02-26T01:20:13;13.25;;;5.50;;
9716;SDS011;4897;43.570;27.832;2023-02-26T01:22:45;13.40;;;5.43;;
9716;SDS011;4897;43.570;27.832;2023-02-26T01:25:19;15.88;;;5.85;;
9716;SDS011;4897;43.570;27.832;2023-02-26T01:27:50;16.98;;;5.57;;
9716;SDS011;4897;43.570;27.832;2023-02-26T01:30:18;16.50;;;6.07;;
9716;SDS011;4897;43.570;27.832;2023-02-26T01:32:47;11.60;;;4.90;;
9716;SDS011;4897;43.570;27.832;2023-02-26T01:35:28;20.00;;;5.43;;
9716;SDS011;4897;43.570;27.832;2023-02-26T01:38:03;15.18;;;5.30;;
9716;SDS011;4897;43.570;27.832;2023-02-26T01:40:47;18.48;;;5.68;;
9716;SDS011;4897;43.570;27.832;2023-02-26T01:43:30;13.95;;;5.80;;
9716;SDS011;4897;43.570;27.832;2023-02-26T01:46:03;11.63;;;5.40;;
9716;SDS011;4897;43.570;27.832;2023-02-26T01:48:35;14.95;;;6.13;;
9716;SDS011;4897;43.570;27.832;2023-02-26T01:51:05;16.05;;;5.70;;
9716;SDS011;4897;43.570;27.832;2023-02-26T01:53:32;23.30;;;6.07;;
9716;SDS011;4897;43.570;27.832;2023-02-26T01:55:59;19.75;;;5.75;;
9716;SDS011;4897;43.570;27.832;2023-02-26T01:58:31;16.27;;;5.85;;
9716;SDS011;4897;43.570;27.832;2023-02-26T02:01:01;20.63;;;6.05;;
9716;SDS011;4897;43.570;27.832;2023-02-26T02:03:29;13.57;;;5.57;;
9716;SDS011;4897;43.570;27.832;2023-02-26T02:05:59;17.88;;;6.32;;
9716;SDS011;4897;43.570;27.832;2023-02-26T02:08:32;22.80;;;5.72;;
9716;SDS011;4897;43.570;27.832;2023-02-26T02:11:00;11.13;;;4.55;;
9716;SDS011;4897;43.570;27.832;2023-02-26T02:13:30;16.05;;;5.53;;
9716;SDS011;4897;43.570;27.832;2023-02-26T02:16:19;13.52;;;5.55;;
9716;SDS011;4897;43.570;27.832;2023-02-26T02:18:58;13.48;;;5.70;;
9716;SDS011;4897;43.570;27.832;2023-02-26T02:21:47;17.45;;;6.05;;
9716;SDS011;4897;43.570;27.832;2023-02-26T02:24:22;11.95;;;5.93;;
9716;SDS011;4897;43.570;27.832;2023-02-26T02:27:01;16.20;;;5.88;;
9716;SDS011;4897;43.570;27.832;2023-02-26T02:32:42;24.92;;;5.20;;
9716;SDS011;4897;43.570;27.832;2023-02-26T02:35:14;15.95;;;5.68;;
9716;SDS011;4897;43.570;27.832;2023-02-26T02:37:46;18.55;;;6.10;;
9716;SDS011;4897;43.570;27.832;2023-02-26T02:40:17;16.83;;;5.85;;
9716;SDS011;4897;43.570;27.832;2023-02-26T02:42:48;14.63;;;6.15;;
9716;SDS011;4897;43.570;27.832;2023-02-26T02:45:21;20.15;;;5.68;;
9716;SDS011;4897;43.570;27.832;2023-02-26T02:47:53;17.17;;;5.22;;
9716;SDS011;4897;43.570;27.832;2023-02-26T02:50:25;20.42;;;5.80;;
9716;SDS011;4897;43.570;27.832;2023-02-26T02:52:56;13.30;;;5.93;;
9716;SDS011;4897;43.570;27.832;2023-02-26T02:55:27;13.35;;;5.43;;
9716;SDS011;4897;43.570;27.832;2023-02-26T02:57:58;15.48;;;5.93;;
9716;SDS011;4897;43.570;27.832;2023-02-26T03:00:28;10.63;;;5.13;;
9716;SDS011;4897;43.570;27.832;2023-02-26T03:03:02;12.52;;;5.32;;
9716;SDS011;4897;43.570;27.832;2023-02-26T03:05:36;16.73;;;5.05;;
9716;SDS011;4897;43.570;27.832;2023-02-26T03:08:06;14.75;;;5.78;;
9716;SDS011;4897;43.570;27.832;2023-02-26T03:10:36;16.58;;;4.47;;
9716;SDS011;4897;43.570;27.832;2023-02-26T03:13:03;14.60;;;5.00;;
9716;SDS011;4897;43.570;27.832;2023-02-26T03:15:32;12.63;;;5.63;;
9716;SDS011;4897;43.570;27.832;2023-02-26T03:18:08;12.40;;;5.05;;
9716;SDS011;4897;43.570;27.832;2023-02-26T03:20:45;13.05;;;6.10;;
9716;SDS011;4897;43.570;27.832;2023-02-26T03:23:21;18.63;;;5.53;;
9716;SDS011;4897;43.570;27.832;2023-02-26T03:25:53;17.10;;;5.45;;
9716;SDS011;4897;43.570;27.832;2023-02-26T03:28:24;16.75;;;4.93;;
9716;SDS011;4897;43.570;27.832;2023-02-26T03:30:57;16.95;;;5.28;;
9716;SDS011;4897;43.570;27.832;2023-02-26T03:33:32;14.70;;;4.75;;
9716;SDS011;4897;43.570;27.832;2023-02-26T03:36:05;17.80;;;5.57;;
9716;SDS011;4897;43.570;27.832;2023-02-26T03:38:38;9.68;;;4.85;;
9716;SDS011;4897;43.570;27.832;2023-02-26T03:41:12;17.58;;;5.28;;
9716;SDS011;4897;43.570;27.832;2023-02-26T03:43:43;15.75;;;5.55;;
9716;SDS011;4897;43.570;27.832;2023-02-26T03:46:14;13.45;;;4.97;;
9716;SDS011;4897;43.570;27.832;2023-02-26T03:48:48;12.98;;;4.68;;
9716;SDS011;4897;43.570;27.832;2023-02-26T03:51:17;14.43;;;4.97;;
9716;SDS011;4897;43.570;27.832;2023-02-26T03:53:46;22.88;;;5.75;;
9716;SDS011;4897;43.570;27.832;2023-02-26T03:56:20;15.52;;;5.35;;
9716;SDS011;4897;43.570;27.832;2023-02-26T03:58:51;18.73;;;5.38;;
9716;SDS011;4897;43.570;27.832;2023-02-26T04:01:19;13.95;;;4.57;;
9716;SDS011;4897;43.570;27.832;2023-02-26T04:03:52;9.68;;;4.95;;
9716;SDS011;4897;43.570;27.832;2023-02-26T04:06:25;12.98;;;5.10;;
9716;SDS011;4897;43.570;27.832;2023-02-26T04:08:53;17.33;;;4.88;;
9716;SDS011;4897;43.570;27.832;2023-02-26T04:11:20;20.15;;;4.57;;
9716;SDS011;4897;43.570;27.832;2023-02-26T04:13:49;14.18;;;4.85;;
9716;SDS011;4897;43.570;27.832;2023-02-26T04:16:16;12.43;;;5.00;;
9716;SDS011;4897;43.570;27.832;2023-02-26T04:18:43;18.20;;;4.97;;
9716;SDS011;4897;43.570;27.832;2023-02-26T04:21:12;9.43;;;4.20;;
9716;SDS011;4897;43.570;27.832;2023-02-26T04:23:41;21.48;;;5.10;;
9716;SDS011;4897;43.570;27.832;2023-02-26T04:26:07;17.52;;;5.30;;
9716;SDS011;4897;43.570;27.832;2023-02-26T04:28:34;12.60;;;4.82;;
9716;SDS011;4897;43.570;27.832;2023-02-26T04:31:02;10.52;;;3.90;;
9716;SDS011;4897;43.570;27.832;2023-02-26T04:33:29;12.60;;;4.57;;
9716;SDS011;4897;43.570;27.832;2023-02-26T04:35:56;15.18;;;4.75;;
9716;SDS011;4897;43.570;27.832;2023-02-26T04:38:24;16.92;;;4.72;;
9716;SDS011;4897;43.570;27.832;2023-02-26T04:40:51;19.33;;;5.25;;
9716;SDS011;4897;43.570;27.832;2023-02-26T04:43:18;12.40;;;4.68;;
9716;SDS011;4897;43.570;27.832;2023-02-26T04:45:45;11.48;;;4.18;;
9716;SDS011;4897;43.570;27.832;2023-02-26T04:48:12;19.83;;;4.60;;
9716;SDS011;4897;43.570;27.832;2023-02-26T04:50:39;13.73;;;4.45;;
9716;SDS011;4897;43.570;27.832;2023-02-26T04:53:07;12.68;;;4.53;;
9716;SDS011;4897;43.570;27.832;2023-02-26T04:55:35;20.90;;;4.38;;
9716;SDS011;4897;43.570;27.832;2023-02-26T04:58:03;14.98;;;4.88;;
9716;SDS011;4897;43.570;27.832;2023-02-26T05:00:30;16.30;;;4.70;;
9716;SDS011;4897;43.570;27.832;2023-02-26T05:02:56;14.43;;;4.35;;
9716;SDS011;4897;43.570;27.832;2023-02-26T05:05:23;11.95;;;4.43;;
9716;SDS011;4897;43.570;27.832;2023-02-26T05:07:50;14.05;;;5.07;;
9716;SDS011;4897;43.570;27.832;2023-02-26T05:10:20;13.68;;;4.75;;
9716;SDS011;4897;43.570;27.832;2023-02-26T05:12:48;12.23;;;4.32;;
9716;SDS011;4897;43.570;27.832;2023-02-26T05:15:15;19.48;;;3.78;;
9716;SDS011;4897;43.570;27.832;2023-02-26T05:17:42;14.82;;;4.50;;
9716;SDS011;4897;43.570;27.832;2023-02-26T05:20:09;13.43;;;4.72;;
9716;SDS011;4897;43.570;27.832;2023-02-26T05:22:37;11.70;;;4.60;;
9716;SDS011;4897;43.570;27.832;2023-02-26T05:25:04;13.45;;;4.53;;
9716;SDS011;4897;43.570;27.832;2023-02-26T05:27:32;17.98;;;4.70;;
9716;SDS011;4897;43.570;27.832;2023-02-26T05:30:00;13.02;;;4.40;;
9716;SDS011;4897;43.570;27.832;2023-02-26T05:32:27;12.90;;;4.25;;
9716;SDS011;4897;43.570;27.832;2023-02-26T05:34:54;11.00;;;4.35;;
9716;SDS011;4897;43.570;27.832;2023-02-26T05:37:21;22.55;;;5.03;;
9716;SDS011;4897;43.570;27.832;2023-02-26T05:39:51;12.93;;;4.43;;
9716;SDS011;4897;43.570;27.832;2023-02-26T05:42:17;20.15;;;4.65;;
9716;SDS011;4897;43.570;27.832;2023-02-26T05:44:44;15.13;;;4.45;;
9716;SDS011;4897;43.570;27.832;2023-02-26T05:47:13;11.50;;;4.55;;
9716;SDS011;4897;43.570;27.832;2023-02-26T05:49:39;17.80;;;4.60;;
9716;SDS011;4897;43.570;27.832;2023-02-26T05:52:06;15.82;;;4.50;;
9716;SDS011;4897;43.570;27.832;2023-02-26T05:54:33;9.65;;;4.25;;
9716;SDS011;4897;43.570;27.832;2023-02-26T05:57:00;13.02;;;4.10;;
9716;SDS011;4897;43.570;27.832;2023-02-26T05:59:27;15.77;;;4.47;;
9716;SDS011;4897;43.570;27.832;2023-02-26T06:01:54;10.70;;;4.00;;
9716;SDS011;4897;43.570;27.832;2023-02-26T06:04:22;10.57;;;4.18;;
9716;SDS011;4897;43.570;27.832;2023-02-26T06:06:49;13.75;;;4.03;;
9716;SDS011;4897;43.570;27.832;2023-02-26T06:09:16;18.52;;;4.20;;
9716;SDS011;4897;43.570;27.832;2023-02-26T06:11:43;15.38;;;4.50;;
9716;SDS011;4897;43.570;27.832;2023-02-26T06:14:10;13.40;;;4.63;;
9716;SDS011;4897;43.570;27.832;2023-02-26T06:16:36;15.32;;;3.83;;
9716;SDS011;4897;43.570;27.832;2023-02-26T06:19:03;15.63;;;5.10;;
9716;SDS011;4897;43.570;27.832;2023-02-26T06:21:31;24.25;;;4.10;;
9716;SDS011;4897;43.570;27.832;2023-02-26T06:23:58;11.68;;;4.68;;
9716;SDS011;4897;43.570;27.832;2023-02-26T06:26:25;15.48;;;4.47;;
9716;SDS011;4897;43.570;27.832;2023-02-26T06:28:52;12.73;;;4.38;;
9716;SDS011;4897;43.570;27.832;2023-02-26T06:31:19;19.15;;;4.93;;
9716;SDS011;4897;43.570;27.832;2023-02-26T06:33:46;13.57;;;4.50;;
9716;SDS011;4897;43.570;27.832;2023-02-26T06:36:13;20.90;;;4.72;;
9716;SDS011;4897;43.570;27.832;2023-02-26T06:38:41;15.88;;;4.70;;
9716;SDS011;4897;43.570;27.832;2023-02-26T06:41:11;10.30;;;3.58;;
9716;SDS011;4897;43.570;27.832;2023-02-26T06:43:37;14.00;;;4.93;;
9716;SDS011;4897;43.570;27.832;2023-02-26T06:46:04;17.10;;;5.07;;
9716;SDS011;4897;43.570;27.832;2023-02-26T06:48:31;12.18;;;4.55;;
9716;SDS011;4897;43.570;27.832;2023-02-26T06:50:58;18.88;;;4.80;;
9716;SDS011;4897;43.570;27.832;2023-02-26T06:53:25;9.68;;;4.55;;
9716;SDS011;4897;43.570;27.832;2023-02-26T06:55:53;15.30;;;4.38;;
9716;SDS011;4897;43.570;27.832;2023-02-26T06:58:22;11.80;;;4.50;;
9716;SDS011;4897;43.570;27.832;2023-02-26T07:00:49;15.30;;;5.00;;
9716;SDS011;4897;43.570;27.832;2023-02-26T07:03:16;17.75;;;4.85;;
9716;SDS011;4897;43.570;27.832;2023-02-26T07:05:44;15.98;;;4.78;;
9716;SDS011;4897;43.570;27.832;2023-02-26T07:08:12;17.50;;;4.32;;
9716;SDS011;4897;43.570;27.832;2023-02-26T07:10:39;13.70;;;4.13;;
9716;SDS011;4897;43.570;27.832;2023-02-26T07:13:08;12.18;;;4.25;;
9716;SDS011;4897;43.570;27.832;2023-02-26T07:15:35;17.50;;;5.03;;
9716;SDS011;4897;43.570;27.832;2023-02-26T07:18:02;11.27;;;4.45;;
9716;SDS011;4897;43.570;27.832;2023-02-26T07:20:29;12.57;;;4.60;;
9716;SDS011;4897;43.570;27.832;2023-02-26T07:22:56;18.33;;;4.50;;
9716;SDS011;4897;43.570;27.832;2023-02-26T07:25:23;17.83;;;4.45;;
9716;SDS011;4897;43.570;27.832;2023-02-26T07:27:50;17.52;;;4.22;;
9716;SDS011;4897;43.570;27.832;2023-02-26T07:30:18;14.63;;;4.50;;
9716;SDS011;4897;43.570;27.832;2023-02-26T07:32:45;20.10;;;4.28;;
9716;SDS011;4897;43.570;27.832;2023-02-26T07:35:12;17.95;;;4.40;;
9716;SDS011;4897;43.570;27.832;2023-02-26T07:37:39;19.13;;;4.57;;
9716;SDS011;4897;43.570;27.832;2023-02-26T07:40:06;19.35;;;4.50;;
9716;SDS011;4897;43.570;27.832;2023-02-26T07:42:34;21.38;;;4.22;;
9716;SDS011;4897;43.570;27.832;2023-02-26T07:45:01;14.98;;;4.88;;
9716;SDS011;4897;43.570;27.832;2023-02-26T07:47:30;25.45;;;4.50;;
9716;SDS011;4897;43.570;27.832;2023-02-26T07:49:57;14.55;;;3.47;;
9716;SDS011;4897;43.570;27.832;2023-02-26T07:52:24;12.18;;;4.05;;
9716;SDS011;4897;43.570;27.832;2023-02-26T07:54:51;12.43;;;3.83;;
9716;SDS011;4897;43.570;27.832;2023-02-26T07:57:18;14.00;;;4.53;;
9716;SDS011;4897;43.570;27.832;2023-02-26T07:59:45;13.13;;;4.38;;
9716;SDS011;4897;43.570;27.832;2023-02-26T08:02:12;9.73;;;3.80;;
9716;SDS011;4897;43.570;27.832;2023-02-26T08:04:40;13.50;;;4.10;;
9716;SDS011;4897;43.570;27.832;2023-02-26T08:07:07;17.70;;;4.60;;
9716;SDS011;4897;43.570;27.832;2023-02-26T08:09:34;12.20;;;4.35;;
9716;SDS011;4897;43.570;27.832;2023-02-26T08:12:01;11.70;;;4.28;;
9716;SDS011;4897;43.570;27.832;2023-02-26T08:14:28;11.38;;;3.10;;
9716;SDS011;4897;43.570;27.832;2023-02-26T08:16:55;25.40;;;4.50;;
9716;SDS011;4897;43.570;27.832;2023-02-26T08:19:22;15.20;;;4.95;;
9716;SDS011;4897;43.570;27.832;2023-02-26T08:21:50;16.77;;;4.00;;
9716;SDS011;4897;43.570;27.832;2023-02-26T08:24:19;11.80;;;4.15;;
9716;SDS011;4897;43.570;27.832;2023-02-26T08:26:46;9.18;;;3.63;;
9716;SDS011;4897;43.570;27.832;2023-02-26T08:29:13;10.95;;;4.43;;
9716;SDS011;4897;43.570;27.832;2023-02-26T08:31:40;12.00;;;4.38;;
9716;SDS011;4897;43.570;27.832;2023-02-26T08:34:07;18.02;;;4.63;;
9716;SDS011;4897;43.570;27.832;2023-02-26T08:36:34;16.67;;;3.75;;
9716;SDS011;4897;43.570;27.832;2023-02-26T08:39:02;20.35;;;4.10;;
9716;SDS011;4897;43.570;27.832;2023-02-26T08:41:29;17.10;;;3.63;;
9716;SDS011;4897;43.570;27.832;2023-02-26T08:43:57;17.00;;;3.97;;
9716;SDS011;4897;43.570;27.832;2023-02-26T08:46:24;17.98;;;3.92;;
9716;SDS011;4897;43.570;27.832;2023-02-26T08:48:52;12.82;;;4.28;;
9716;SDS011;4897;43.570;27.832;2023-02-26T08:51:18;13.73;;;3.67;;
9716;SDS011;4897;43.570;27.832;2023-02-26T08:53:46;13.40;;;3.97;;
9716;SDS011;4897;43.570;27.832;2023-02-26T08:56:16;16.85;;;4.53;;
9716;SDS011;4897;43.570;27.832;2023-02-26T08:58:43;10.30;;;3.72;;
9716;SDS011;4897;43.570;27.832;2023-02-26T09:01:10;13.27;;;4.18;;
9716;SDS011;4897;43.570;27.832;2023-02-26T09:03:37;12.20;;;4.18;;
9716;SDS011;4897;43.570;27.832;2023-02-26T09:06:03;14.63;;;4.72;;
9716;SDS011;4897;43.570;27.832;2023-02-26T09:08:30;15.43;;;4.05;;
9716;SDS011;4897;43.570;27.832;2023-02-26T09:10:58;20.17;;;4.55;;
9716;SDS011;4897;43.570;27.832;2023-02-26T09:13:28;13.38;;;4.35;;
9716;SDS011;4897;43.570;27.832;2023-02-26T09:15:55;15.82;;;4.75;;
9716;SDS011;4897;43.570;27.832;2023-02-26T09:18:22;16.58;;;3.97;;
9716;SDS011;4897;43.570;27.832;2023-02-26T09:20:52;17.17;;;4.75;;
9716;SDS011;4897;43.570;27.832;2023-02-26T09:23:19;14.75;;;4.75;;
9716;SDS011;4897;43.570;27.832;2023-02-26T09:25:50;16.40;;;4.88;;
9716;SDS011;4897;43.570;27.832;2023-02-26T09:28:19;12.32;;;4.10;;
9716;SDS011;4897;43.570;27.832;2023-02-26T09:30:49;13.15;;;4.45;;
9716;SDS011;4897;43.570;27.832;2023-02-26T09:33:16;10.57;;;3.90;;
9716;SDS011;4897;43.570;27.832;2023-02-26T09:35:43;20.98;;;5.00;;
9716;SDS011;4897;43.570;27.832;2023-02-26T09:38:13;16.83;;;4.57;;
9716;SDS011;4897;43.570;27.832;2023-02-26T09:40:41;14.18;;;4.53;;
9716;SDS011;4897;43.570;27.832;2023-02-26T09:43:26;16.17;;;4.30;;
9716;SDS011;4897;43.570;27.832;2023-02-26T09:46:03;17.40;;;4.28;;
9716;SDS011;4897;43.570;27.832;2023-02-26T09:48:36;13.48;;;4.63;;
9716;SDS011;4897;43.570;27.832;2023-02-26T09:51:04;15.10;;;4.38;;
9716;SDS011;4897;43.570;27.832;2023-02-26T09:53:36;14.63;;;4.68;;
9716;SDS011;4897;43.570;27.832;2023-02-26T09:56:10;8.27;;;3.40;;
9716;SDS011;4897;43.570;27.832;2023-02-26T09:58:42;15.57;;;4.50;;
9716;SDS011;4897;43.570;27.832;2023-02-26T10:01:11;19.23;;;4.15;;
9716;SDS011;4897;43.570;27.832;2023-02-26T10:03:49;18.15;;;4.60;;
9716;SDS011;4897;43.570;27.832;2023-02-26T10:06:24;15.18;;;4.38;;
9716;SDS011;4897;43.570;27.832;2023-02-26T10:09:07;12.85;;;3.95;;
9716;SDS011;4897;43.570;27.832;2023-02-26T10:11:46;13.70;;;4.60;;
9716;SDS011;4897;43.570;27.832;2023-02-26T10:14:18;20.77;;;4.22;;
9716;SDS011;4897;43.570;27.832;2023-02-26T10:16:52;30.15;;;4.07;;
9716;SDS011;4897;43.570;27.832;2023-02-26T10:19:23;10.10;;;3.40;;
9716;SDS011;4897;43.570;27.832;2023-02-26T10:21:55;15.50;;;3.70;;
9716;SDS011;4897;43.570;27.832;2023-02-26T10:24:28;15.15;;;3.83;;
9716;SDS011;4897;43.570;27.832;2023-02-26T10:27:04;10.50;;;3.30;;
9716;SDS011;4897;43.570;27.832;2023-02-26T10:29:35;12.02;;;3.55;;
9716;SDS011;4897;43.570;27.832;2023-02-26T10:32:14;17.40;;;3.97;;
9716;SDS011;4897;43.570;27.832;2023-02-26T10:34:50;11.00;;;4.00;;
9716;SDS011;4897;43.570;27.832;2023-02-26T10:37:23;16.73;;;4.82;;
9716;SDS011;4897;43.570;27.832;2023-02-26T10:40:00;15.57;;;5.18;;
9716;SDS011;4897;43.570;27.832;2023-02-26T10:42:36;13.05;;;3.67;;
9716;SDS011;4897;43.570;27.832;2023-02-26T10:45:09;16.13;;;4.40;;
9716;SDS011;4897;43.570;27.832;2023-02-26T10:47:52;12.50;;;3.33;;
9716;SDS011;4897;43.570;27.832;2023-02-26T10:50:28;11.00;;;3.97;;
9716;SDS011;4897;43.570;27.832;2023-02-26T10:52:57;15.00;;;4.30;;
9716;SDS011;4897;43.570;27.832;2023-02-26T10:55:29;20.65;;;3.97;;
9716;SDS011;4897;43.570;27.832;2023-02-26T10:58:05;11.43;;;3.65;;
9716;SDS011;4897;43.570;27.832;2023-02-26T11:00:38;11.07;;;3.72;;
9716;SDS011;4897;43.570;27.832;2023-02-26T11:03:09;16.67;;;3.45;;
9716;SDS011;4897;43.570;27.832;2023-02-26T11:05:41;17.27;;;3.95;;
9716;SDS011;4897;43.570;27.832;2023-02-26T11:08:09;9.90;;;2.75;;
9716;SDS011;4897;43.570;27.832;2023-02-26T11:10:42;21.15;;;4.93;;
9716;SDS011;4897;43.570;27.832;2023-02-26T11:13:13;18.70;;;4.00;;
9716;SDS011;4897;43.570;27.832;2023-02-26T11:15:40;13.23;;;4.65;;
9716;SDS011;4897;43.570;27.832;2023-02-26T11:18:12;15.43;;;4.07;;
9716;SDS011;4897;43.570;27.832;2023-02-26T11:20:42;8.95;;;3.95;;
9716;SDS011;4897;43.570;27.832;2023-02-26T11:23:12;12.90;;;4.47;;
9716;SDS011;4897;43.570;27.832;2023-02-26T11:25:42;13.02;;;3.97;;
9716;SDS011;4897;43.570;27.832;2023-02-26T11:28:17;15.85;;;3.83;;
9716;SDS011;4897;43.570;27.832;2023-02-26T11:30:46;21.75;;;4.55;;
9716;SDS011;4897;43.570;27.832;2023-02-26T11:33:17;17.30;;;4.47;;
9716;SDS011;4897;43.570;27.832;2023-02-26T11:35:48;14.27;;;4.05;;
9716;SDS011;4897;43.570;27.832;2023-02-26T11:38:18;21.05;;;4.25;;
9716;SDS011;4897;43.570;27.832;2023-02-26T11:40:48;13.57;;;4.35;;
9716;SDS011;4897;43.570;27.832;2023-02-26T11:43:20;22.63;;;4.40;;
9716;SDS011;4897;43.570;27.832;2023-02-26T11:45:51;13.07;;;3.92;;
9716;SDS011;4897;43.570;27.832;2023-02-26T11:48:23;9.93;;;3.40;;
9716;SDS011;4897;43.570;27.832;2023-02-26T11:50:54;12.50;;;3.58;;
9716;SDS011;4897;43.570;27.832;2023-02-26T11:53:25;12.65;;;4.45;;
9716;SDS011;4897;43.570;27.832;2023-02-26T11:55:58;13.77;;;3.80;;
9716;SDS011;4897;43.570;27.832;2023-02-26T11:58:27;26.25;;;3.90;;
9716;SDS011;4897;43.570;27.832;2023-02-26T12:01:01;11.57;;;4.07;;
9716;SDS011;4897;43.570;27.832;2023-02-26T12:03:32;24.50;;;4.65;;
9716;SDS011;4897;43.570;27.832;2023-02-26T12:06:04;15.85;;;3.83;;
9716;SDS011;4897;43.570;27.832;2023-02-26T12:08:34;20.45;;;3.53;;
9716;SDS011;4897;43.570;27.832;2023-02-26T12:11:05;14.30;;;4.05;;
9716;SDS011;4897;43.570;27.832;2023-02-26T12:13:47;10.63;;;3.10;;
9716;SDS011;4897;43.570;27.832;2023-02-26T12:16:26;16.80;;;3.80;;
9716;SDS011;4897;43.570;27.832;2023-02-26T12:19:02;11.77;;;3.40;;
9716;SDS011;4897;43.570;27.832;2023-02-26T12:21:43;16.48;;;3.55;;
9716;SDS011;4897;43.570;27.832;2023-02-26T12:27:31;14.25;;;3.70;;
9716;SDS011;4897;43.570;27.832;2023-02-26T12:30:19;10.35;;;3.55;;
9716;SDS011;4897;43.570;27.832;2023-02-26T12:33:01;18.95;;;4.05;;
9716;SDS011;4897;43.570;27.832;2023-02-26T12:35:53;11.65;;;3.83;;
9716;SDS011;4897;43.570;27.832;2023-02-26T12:38:34;18.15;;;4.00;;
9716;SDS011;4897;43.570;27.832;2023-02-26T12:41:27;18.48;;;3.33;;
9716;SDS011;4897;43.570;27.832;2023-02-26T12:44:10;18.40;;;4.22;;
9716;SDS011;4897;43.570;27.832;2023-02-26T12:46:56;9.68;;;3.50;;
9716;SDS011;4897;43.570;27.832;2023-02-26T12:49:44;15.00;;;3.30;;
9716;SDS011;4897;43.570;27.832;2023-02-26T12:52:35;13.80;;;3.75;;
9716;SDS011;4897;43.570;27.832;2023-02-26T12:55:22;11.13;;;3.70;;
9716;SDS011;4897;43.570;27.832;2023-02-26T12:58:08;7.70;;;2.90;;
9716;SDS011;4897;43.570;27.832;2023-02-26T13:00:59;18.05;;;4.07;;
9716;SDS011;4897;43.570;27.832;2023-02-26T13:06:40;10.98;;;3.40;;
9716;SDS011;4897;43.570;27.832;2023-02-26T13:09:26;13.98;;;3.92;;
9716;SDS011;4897;43.570;27.832;2023-02-26T13:12:00;15.52;;;3.45;;
9716;SDS011;4897;43.570;27.832;2023-02-26T13:14:39;18.42;;;4.03;;
9716;SDS011;4897;43.570;27.832;2023-02-26T13:17:13;15.55;;;3.60;;
9716;SDS011;4897;43.570;27.832;2023-02-26T13:19:49;14.40;;;3.50;;
9716;SDS011;4897;43.570;27.832;2023-02-26T13:22:20;13.23;;;4.75;;
9716;SDS011;4897;43.570;27.832;2023-02-26T13:24:56;10.52;;;3.40;;
9716;SDS011;4897;43.570;27.832;2023-02-26T13:27:28;11.70;;;3.72;;
9716;SDS011;4897;43.570;27.832;2023-02-26T13:30:04;12.00;;;3.47;;
9716;SDS011;4897;43.570;27.832;2023-02-26T13:32:43;11.63;;;3.67;;
9716;SDS011;4897;43.570;27.832;2023-02-26T13:35:17;17.67;;;3.85;;
9716;SDS011;4897;43.570;27.832;2023-02-26T13:37:48;21.77;;;4.07;;
9716;SDS011;4897;43.570;27.832;2023-02-26T13:43:20;14.75;;;3.65;;
9716;SDS011;4897;43.570;27.832;2023-02-26T13:46:22;18.80;;;3.67;;
9716;SDS011;4897;43.570;27.832;2023-02-26T13:48:59;13.75;;;3.53;;
9716;SDS011;4897;43.570;27.832;2023-02-26T13:51:35;12.18;;;3.15;;
9716;SDS011;4897;43.570;27.832;2023-02-26T13:54:06;10.43;;;3.45;;
9716;SDS011;4897;43.570;27.832;2023-02-26T13:57:04;13.85;;;4.03;;
9716;SDS011;4897;43.570;27.832;2023-02-26T13:59:37;16.35;;;3.92;;
9716;SDS011;4897;43.570;27.832;2023-02-26T14:05:33;10.65;;;3.05;;
9716;SDS011;4897;43.570;27.832;2023-02-26T14:08:25;11.82;;;4.40;;
9716;SDS011;4897;43.570;27.832;2023-02-26T14:14:24;17.38;;;4.00;;
9716;SDS011;4897;43.570;27.832;2023-02-26T14:22:40;19.42;;;4.22;;
9716;SDS011;4897;43.570;27.832;2023-02-26T14:25:11;10.15;;;3.45;;
9716;SDS011;4897;43.570;27.832;2023-02-26T14:27:43;15.55;;;3.47;;
9716;SDS011;4897;43.570;27.832;2023-02-26T14:30:18;12.70;;;3.05;;
9716;SDS011;4897;43.570;27.832;2023-02-26T14:32:53;13.32;;;3.45;;
9716;SDS011;4897;43.570;27.832;2023-02-26T14:35:33;8.82;;;3.40;;
9716;SDS011;4897;43.570;27.832;2023-02-26T14:38:05;12.40;;;3.92;;
9716;SDS011;4897;43.570;27.832;2023-02-26T14:40:39;9.38;;;3.72;;
9716;SDS011;4897;43.570;27.832;2023-02-26T14:43:17;13.25;;;4.13;;
9716;SDS011;4897;43.570;27.832;2023-02-26T14:45:50;11.13;;;3.97;;
9716;SDS011;4897;43.570;27.832;2023-02-26T14:48:17;12.05;;;3.70;;
9716;SDS011;4897;43.570;27.832;2023-02-26T14:50:50;15.63;;;3.50;;
9716;SDS011;4897;43.570;27.832;2023-02-26T14:53:43;10.40;;;3.80;;
9716;SDS011;4897;43.570;27.832;2023-02-26T14:56:24;11.65;;;4.25;;
9716;SDS011;4897;43.570;27.832;2023-02-26T14:59:04;11.13;;;3.45;;
9716;SDS011;4897;43.570;27.832;2023-02-26T15:01:58;8.52;;;4.00;;
9716;SDS011;4897;43.570;27.832;2023-02-26T15:04:47;16.25;;;4.25;;
9716;SDS011;4897;43.570;27.832;2023-02-26T15:07:48;8.38;;;3.53;;
9716;SDS011;4897;43.570;27.832;2023-02-26T15:10:33;10.02;;;3.20;;
9716;SDS011;4897;43.570;27.832;2023-02-26T15:13:23;10.57;;;4.20;;
9716;SDS011;4897;43.570;27.832;2023-02-26T15:16:00;9.82;;;3.53;;
9716;SDS011;4897;43.570;27.832;2023-02-26T15:18:43;12.75;;;3.75;;
9716;SDS011;4897;43.570;27.832;2023-02-26T15:21:22;13.40;;;3.85;;
9716;SDS011;4897;43.570;27.832;2023-02-26T15:23:57;13.93;;;3.75;;
9716;SDS011;4897;43.570;27.832;2023-02-26T15:26:26;8.60;;;3.70;;
9716;SDS011;4897;43.570;27.832;2023-02-26T15:28:54;11.60;;;4.00;;
9716;SDS011;4897;43.570;27.832;2023-02-26T15:31:27;7.78;;;3.63;;
9716;SDS011;4897;43.570;27.832;2023-02-26T15:33:57;9.38;;;3.92;;
9716;SDS011;4897;43.570;27.832;2023-02-26T15:36:27;12.30;;;4.10;;
9716;SDS011;4897;43.570;27.832;2023-02-26T15:38:55;13.48;;;4.13;;
9716;SDS011;4897;43.570;27.832;2023-02-26T15:41:24;15.32;;;3.97;;